Terminal Aerodrome Forecast
Issued by NWS

Current Version | Previous Version | Text Only | Print | Product List | Glossary On
Versions: 1 2 3 4 5 6 7 8 9 10 11 12 13
000 FTUS42 KRAH 270529 TAFRWI TAF KRWI 270529Z 2706/2806 VRB03KT P6SM SKC TEMPO 2709/2712 3SM BR FM271600 VRB03KT P6SM SCT035 SCT080 PROB30 2718/2722 3SM TSRA BKN040CB=

USA.gov is the U.S. government's official web portal to all federal, state and local government web resources and services.